Startpagina
METAR-TAF:

METAR-TAF

Vliegvelden :

Luchthaven Ankara Esenboga

Ankara Esenboğa, Turkije

breedte: 40-07N, lengte: 032-59E, hoogte: 953 m

Actueel weer

Dit bericht is 35 minuten geleden gemaakt, om 11:50 UTC
Wind 9 kt uit het westen, variërend tussen het zuidwesten en het westnoordwesten
Temperatuur 7°C
Vochtigheid 53%
Druk 1019 hPa
Zicht 10 km of meer
Verspreide wolken op 4000 ft
Gebroken wolken op 8000 ft

METAR: LTAC 161150Z 26009KT 220V300 9999 SCT040 BKN080 07/M02 Q1019 NOSIG

Tijdstip: 15:25 (12:25 UTC)

Verwachting

Dit bericht is 1 uur en het 45 minuten geleden gemaakt, om 10:40 UTC
Verwachting geldig van 16 om 12 UTC tot 17 om 12 UTC
Wind 2 kt uit variabele richting
Zicht 10 km of meer
Verspreide wolken op 4000 ft
Gebroken wolken op 10000 ft
Tijdelijke
van 16 om 12 UTC tot 16 om 15 UTC
Wind 12 kt uit het westen

TAF: LTAC 161040Z 1612/1712 VRB02KT 9999 SCT040 BKN100 TEMPO 1612/1615 28012KT

Waarnemingen en weersverwachtingen van meer dan 4000 vliegvelden (METAR en TAF).

De beschikbare stations zijn de gele en rode punten op de kaart.

Ga met uw muis naar het station om de naam te zien.

Klik dan om waarnemingen en weersverwachtingen te zien.

kaart wijzigen: klik op de groene knoppen met een zwart kruis om in te zoomen, op de groene knop met een streepje om uit te zoomen of op de groene pijlen voor aangrenzende kaarten.


METAR-TAF: